createdAt,value
2019-01-28T00:00:25.275Z,32.57
2019-01-28T00:02:52.828Z,30.93
2019-01-28T00:05:20.221Z,36.43
2019-01-28T00:07:47.611Z,34.27
2019-01-28T00:10:15.015Z,37.20
2019-01-28T00:12:42.347Z,33.53
2019-01-28T00:15:09.721Z,35.90
2019-01-28T00:17:37.338Z,35.93
2019-01-28T00:20:05.425Z,34.23
2019-01-28T00:22:32.788Z,35.23
2019-01-28T00:25:00.215Z,35.57
2019-01-28T00:27:27.599Z,36.40
2019-01-28T00:29:54.947Z,35.60
2019-01-28T00:32:22.329Z,32.83
2019-01-28T00:34:49.719Z,37.00
2019-01-28T00:37:17.068Z,39.00
2019-01-28T00:39:44.467Z,36.23
2019-01-28T00:42:12.030Z,36.20
2019-01-28T00:44:39.427Z,33.00
2019-01-28T00:47:06.886Z,38.27
2019-01-28T00:49:34.246Z,37.20
2019-01-28T00:52:01.719Z,39.83
2019-01-28T00:54:29.066Z,36.67
2019-01-28T00:56:56.430Z,34.50
2019-01-28T00:59:23.847Z,37.43
2019-01-28T01:01:51.228Z,36.53
2019-01-28T01:04:18.660Z,33.33
2019-01-28T01:06:46.233Z,32.17
2019-01-28T01:09:13.650Z,32.40
2019-01-28T01:11:41.050Z,33.87
2019-01-28T01:14:08.431Z,39.03
2019-01-28T01:16:35.785Z,34.40
2019-01-28T01:19:03.518Z,32.47
2019-01-28T01:21:30.934Z,31.57
2019-01-28T01:23:58.309Z,36.10
2019-01-28T01:26:25.746Z,37.37
2019-01-28T01:28:53.127Z,35.30
2019-01-28T01:31:20.887Z,38.93
2019-01-28T01:33:48.301Z,37.53
2019-01-28T01:36:15.832Z,38.87
2019-01-28T01:38:43.311Z,36.73
2019-01-28T01:41:10.666Z,36.97
2019-01-28T01:43:37.986Z,26.10
2019-01-28T01:46:05.387Z,41.17
2019-01-28T01:48:32.811Z,38.03
2019-01-28T01:51:00.239Z,34.63
2019-01-28T01:53:27.622Z,36.67
2019-01-28T01:55:54.966Z,35.10
2019-01-28T01:58:22.326Z,39.83
2019-01-28T02:00:49.735Z,41.03
2019-01-28T02:03:17.101Z,33.80
2019-01-28T02:05:44.447Z,14.93
2019-01-28T02:08:11.848Z,38.23
2019-01-28T02:10:39.286Z,35.67
2019-01-28T02:13:06.687Z,22.70
2019-01-28T02:15:34.155Z,36.80
2019-01-28T02:18:01.547Z,36.20
2019-01-28T02:20:28.921Z,37.10
2019-01-28T02:22:56.366Z,39.03
2019-01-28T02:25:23.747Z,18.97
2019-01-28T02:27:51.107Z,36.57
2019-01-28T02:30:18.531Z,35.47
2019-01-28T02:32:45.916Z,37.30
2019-01-28T02:35:13.311Z,32.00
2019-01-28T02:37:40.809Z,38.47
2019-01-28T02:40:11.289Z,33.27
2019-01-28T02:42:38.650Z,34.30
2019-01-28T02:45:07.711Z,35.00
2019-01-28T02:47:35.093Z,26.23
2019-01-28T02:50:02.468Z,43.73
2019-01-28T02:52:29.972Z,36.47
2019-01-28T02:54:57.306Z,37.03
2019-01-28T02:57:24.690Z,36.10
2019-01-28T02:59:52.087Z,34.60
2019-01-28T03:02:19.466Z,34.73
2019-01-28T03:04:46.867Z,31.10
2019-01-28T03:07:14.247Z,33.97
2019-01-28T03:09:41.610Z,36.53
2019-01-28T03:12:09.111Z,34.63
2019-01-28T03:14:36.489Z,33.13
2019-01-28T03:17:10.103Z,29.60
2019-01-28T03:19:38.365Z,22.63
2019-01-28T03:22:05.786Z,19.87
2019-01-28T03:24:33.146Z,20.50
2019-01-28T03:27:00.587Z,21.67
2019-01-28T03:29:27.955Z,24.63
2019-01-28T03:31:55.314Z,19.40
2019-01-28T03:34:22.728Z,19.43
2019-01-28T03:36:50.071Z,34.37
2019-01-28T03:39:17.502Z,29.70
2019-01-28T03:41:44.950Z,28.53
2019-01-28T03:44:12.351Z,28.27
2019-01-28T03:46:39.797Z,30.47
2019-01-28T03:49:07.147Z,31.23
2019-01-28T03:51:34.733Z,33.40
2019-01-28T03:54:02.379Z,30.97
2019-01-28T03:56:29.755Z,33.67
2019-01-28T03:58:57.230Z,35.83
2019-01-28T04:01:26.528Z,36.60
2019-01-28T04:03:53.968Z,40.17
2019-01-28T04:06:21.400Z,34.83
2019-01-28T04:08:48.766Z,36.80
2019-01-28T04:11:16.167Z,33.40
2019-01-28T04:13:43.646Z,34.37
2019-01-28T04:16:11.010Z,30.67
2019-01-28T04:18:38.408Z,33.90
2019-01-28T04:21:05.928Z,29.43
2019-01-28T04:23:33.294Z,29.17
2019-01-28T04:26:00.645Z,29.97
2019-01-28T04:28:28.005Z,28.67
2019-01-28T04:30:55.371Z,28.47
2019-01-28T04:33:22.776Z,30.17
2019-01-28T04:35:50.175Z,30.37
2019-01-28T04:38:17.549Z,27.07
2019-01-28T04:40:44.934Z,25.07
2019-01-28T04:43:12.373Z,26.07
2019-01-28T04:45:39.731Z,26.63
2019-01-28T04:48:07.107Z,31.13
2019-01-28T04:50:34.483Z,25.47
2019-01-28T04:53:01.872Z,26.10
2019-01-28T04:55:29.286Z,23.47
2019-01-28T04:57:56.687Z,21.10
2019-01-28T05:00:24.716Z,21.00
2019-01-28T05:02:52.213Z,23.93
2019-01-28T05:05:19.642Z,23.10
2019-01-28T05:07:46.990Z,20.87
2019-01-28T05:10:15.137Z,23.27
2019-01-28T05:12:42.548Z,21.10
2019-01-28T05:15:10.666Z,19.03
2019-01-28T05:17:38.036Z,11.83
2019-01-28T05:20:07.437Z,9.97
2019-01-28T05:22:34.823Z,10.33
2019-01-28T05:25:02.230Z,12.73
2019-01-28T05:27:29.617Z,9.53
2019-01-28T05:29:56.992Z,7.40
2019-01-28T05:32:24.386Z,12.47
2019-01-28T05:34:51.766Z,15.50
2019-01-28T05:37:19.187Z,13.10
2019-01-28T05:39:46.654Z,9.03
2019-01-28T05:42:14.036Z,11.03
2019-01-28T05:44:41.415Z,7.60
2019-01-28T05:47:08.851Z,7.53
2019-01-28T05:49:36.207Z,6.47
2019-01-28T05:52:03.682Z,7.37
2019-01-28T05:54:31.076Z,4.60
2019-01-28T05:56:58.474Z,7.40
2019-01-28T05:59:25.848Z,10.97
2019-01-28T06:01:53.239Z,10.23
2019-01-28T06:04:20.723Z,7.93
2019-01-28T06:06:48.106Z,7.30
2019-01-28T06:09:15.506Z,8.90
2019-01-28T06:11:42.984Z,10.00
2019-01-28T06:14:10.423Z,10.43
2019-01-28T06:16:37.855Z,9.67
2019-01-28T06:19:05.307Z,9.83
2019-01-28T06:21:32.687Z,9.57
2019-01-28T06:24:00.068Z,9.30
2019-01-28T06:26:27.480Z,9.03
2019-01-28T06:28:54.836Z,12.23
2019-01-28T06:31:22.206Z,18.73
2019-01-28T06:33:49.629Z,20.83
2019-01-28T06:36:16.966Z,23.83
2019-01-28T06:38:44.373Z,22.80
2019-01-28T06:41:11.829Z,20.17
2019-01-28T06:43:39.253Z,19.60
2019-01-28T06:46:06.696Z,26.57
2019-01-28T06:48:34.069Z,23.03
2019-01-28T06:51:01.428Z,16.07
2019-01-28T06:53:28.908Z,12.07
2019-01-28T06:55:56.287Z,11.83
2019-01-28T06:58:23.666Z,9.80
2019-01-28T07:00:51.048Z,24.07
2019-01-28T07:03:18.406Z,22.83
2019-01-28T07:05:45.770Z,25.00
2019-01-28T07:08:13.110Z,28.57
2019-01-28T07:10:40.497Z,26.17
2019-01-28T07:13:07.844Z,23.43
2019-01-28T07:15:35.250Z,23.43
2019-01-28T07:18:02.750Z,18.87
2019-01-28T07:20:30.828Z,20.27
2019-01-28T07:22:58.706Z,18.60
2019-01-28T07:25:26.091Z,14.23
2019-01-28T07:27:53.640Z,12.47
2019-01-28T07:30:29.372Z,18.90
2019-01-28T07:32:56.842Z,18.80
2019-01-28T07:35:24.337Z,17.27
2019-01-28T07:37:51.704Z,26.47
2019-01-28T07:40:19.259Z,24.37
2019-01-28T07:42:46.619Z,21.47
2019-01-28T07:45:17.203Z,21.13
2019-01-28T07:47:44.527Z,15.87
2019-01-28T07:50:12.174Z,14.60
2019-01-28T07:52:39.562Z,13.13
2019-01-28T07:55:07.728Z,10.93
2019-01-28T07:57:35.192Z,10.43
2019-01-28T08:00:02.963Z,12.13
2019-01-28T08:02:30.275Z,10.60
2019-01-28T08:04:57.718Z,9.80
2019-01-28T08:07:25.092Z,9.57
2019-01-28T08:09:52.440Z,17.20
2019-01-28T08:12:19.820Z,19.33
2019-01-28T08:14:47.191Z,16.43
2019-01-28T08:17:14.576Z,18.17
2019-01-28T08:19:41.985Z,16.83
2019-01-28T08:22:09.358Z,19.23
2019-01-28T08:24:36.734Z,16.67
2019-01-28T08:27:04.281Z,23.27
2019-01-28T08:29:31.857Z,22.23
2019-01-28T08:31:59.307Z,17.33
2019-01-28T08:34:26.924Z,17.03
2019-01-28T08:36:54.780Z,21.13
2019-01-28T08:39:22.231Z,21.07
2019-01-28T08:41:49.561Z,19.77
2019-01-28T08:44:16.916Z,22.00
2019-01-28T08:46:44.318Z,21.23
2019-01-28T08:49:11.655Z,22.70
2019-01-28T08:51:38.992Z,24.43
2019-01-28T08:54:06.503Z,21.07
2019-01-28T08:56:34.072Z,18.07
2019-01-28T08:59:01.693Z,20.33
2019-01-28T09:01:29.244Z,16.47
2019-01-28T09:03:56.825Z,14.60
2019-01-28T09:06:24.311Z,13.17
2019-01-28T09:08:51.885Z,13.13
2019-01-28T09:11:19.445Z,14.00
2019-01-28T09:13:46.955Z,13.63
2019-01-28T09:16:14.982Z,15.67
2019-01-28T09:18:42.491Z,14.63
2019-01-28T09:21:09.859Z,12.47
2019-01-28T09:23:37.272Z,12.67
2019-01-28T09:26:06.527Z,12.77
2019-01-28T09:28:33.957Z,11.27
2019-01-28T09:31:01.354Z,13.30
2019-01-28T09:33:28.723Z,17.67
2019-01-28T09:35:56.066Z,16.07
2019-01-28T09:38:23.518Z,15.87
2019-01-28T09:40:50.877Z,18.53
2019-01-28T09:43:18.687Z,24.67
2019-01-28T09:45:46.051Z,22.17
2019-01-28T09:48:14.815Z,23.33
2019-01-28T09:50:43.935Z,20.50
2019-01-28T09:53:12.100Z,19.07
2019-01-28T09:55:39.449Z,21.10
2019-01-28T09:58:06.998Z,16.63
2019-01-28T10:00:43.134Z,17.53
2019-01-28T10:03:10.542Z,16.97
2019-01-28T10:05:37.984Z,13.93
2019-01-28T10:08:06.336Z,15.43
2019-01-28T10:10:33.716Z,16.70
2019-01-28T10:13:01.051Z,15.57
2019-01-28T10:15:29.156Z,14.47
2019-01-28T10:17:56.597Z,17.87
2019-01-28T10:20:29.574Z,14.90
2019-01-28T10:22:57.073Z,12.67
2019-01-28T10:25:25.163Z,10.60
2019-01-28T10:27:52.702Z,12.70
2019-01-28T10:30:23.650Z,13.00
2019-01-28T10:32:51.079Z,12.60
2019-01-28T10:35:20.613Z,10.97
2019-01-28T10:37:47.983Z,10.53
2019-01-28T10:40:18.752Z,10.50
2019-01-28T10:42:46.197Z,10.20
2019-01-28T10:45:13.694Z,10.70
2019-01-28T10:47:41.052Z,13.93
2019-01-28T10:50:09.890Z,13.50
2019-01-28T10:52:37.228Z,15.47
2019-01-28T10:55:04.861Z,14.43
2019-01-28T10:57:32.925Z,12.67
2019-01-28T11:00:00.265Z,13.27
2019-01-28T11:02:27.632Z,12.93
2019-01-28T11:04:55.037Z,13.60
2019-01-28T11:07:22.390Z,12.57
2019-01-28T11:09:49.730Z,19.67
2019-01-28T11:12:17.161Z,16.13
2019-01-28T11:14:44.670Z,16.10
2019-01-28T11:17:12.191Z,17.10
2019-01-28T11:19:39.711Z,14.97
2019-01-28T11:22:07.222Z,15.90
2019-01-28T11:24:34.708Z,15.03
2019-01-28T11:27:04.234Z,13.70
2019-01-28T11:29:31.992Z,13.23
2019-01-28T11:32:02.126Z,13.10
2019-01-28T11:34:29.475Z,12.57
2019-01-28T11:36:56.906Z,14.50
2019-01-28T11:39:24.314Z,13.10
2019-01-28T11:41:51.864Z,14.90
2019-01-28T11:44:19.359Z,13.17
2019-01-28T11:46:46.835Z,11.73
2019-01-28T11:49:14.365Z,10.53
2019-01-28T11:51:41.785Z,7.93
2019-01-28T11:54:09.980Z,8.60
2019-01-28T11:56:37.465Z,8.53
2019-01-28T11:59:04.987Z,9.20
2019-01-28T12:01:33.159Z,11.97
2019-01-28T12:04:00.554Z,11.23
2019-01-28T12:06:28.079Z,11.47
2019-01-28T12:08:55.576Z,11.20
2019-01-28T12:11:22.997Z,13.30
2019-01-28T12:13:50.356Z,10.17
2019-01-28T12:16:17.896Z,11.37
2019-01-28T12:18:45.354Z,12.83
2019-01-28T12:21:13.024Z,11.43
2019-01-28T12:23:40.543Z,14.50
2019-01-28T12:26:07.923Z,13.43
2019-01-28T12:28:35.345Z,12.17
2019-01-28T12:31:02.800Z,11.63
2019-01-28T12:33:30.211Z,12.37
2019-01-28T12:35:57.663Z,10.90
2019-01-28T12:38:25.035Z,10.80
2019-01-28T12:40:52.407Z,11.93
2019-01-28T12:43:19.840Z,14.47
2019-01-28T12:45:47.230Z,13.40
2019-01-28T12:48:15.083Z,14.07
2019-01-28T12:50:42.473Z,15.03
2019-01-28T12:53:09.873Z,14.00
2019-01-28T12:55:37.275Z,13.23
2019-01-28T12:58:04.665Z,14.50
2019-01-28T13:00:39.350Z,12.97
2019-01-28T13:03:07.138Z,12.73
2019-01-28T13:05:34.656Z,12.00
2019-01-28T13:08:02.099Z,11.90
2019-01-28T13:10:29.547Z,12.07
2019-01-28T13:12:56.962Z,11.67
2019-01-28T13:15:26.237Z,13.10
2019-01-28T13:17:54.500Z,14.23
2019-01-28T13:20:22.258Z,12.43
2019-01-28T13:22:50.427Z,14.50
2019-01-28T13:25:18.475Z,12.73
2019-01-28T13:27:45.904Z,16.57
2019-01-28T13:30:18.975Z,15.50
2019-01-28T13:32:46.497Z,14.17
2019-01-28T13:35:13.994Z,14.87
2019-01-28T13:37:41.377Z,15.73
2019-01-28T13:40:09.423Z,14.03
2019-01-28T13:42:36.859Z,14.50
2019-01-28T13:45:05.058Z,13.73
2019-01-28T13:47:32.444Z,13.70
2019-01-28T13:49:59.847Z,13.77
2019-01-28T13:52:27.247Z,13.70
2019-01-28T13:54:54.658Z,14.53
2019-01-28T13:57:22.059Z,12.70
2019-01-28T13:59:49.446Z,11.07
2019-01-28T14:02:16.944Z,12.17
2019-01-28T14:04:44.517Z,8.97
2019-01-28T14:07:11.942Z,9.20
2019-01-28T14:09:39.369Z,5.73
2019-01-28T14:12:06.786Z,4.00
2019-01-28T14:14:34.256Z,4.97
2019-01-28T14:17:01.716Z,4.30
2019-01-28T14:19:29.096Z,4.23
2019-01-28T14:21:56.485Z,4.30
2019-01-28T14:24:23.978Z,3.97
2019-01-28T14:26:51.351Z,4.03
2019-01-28T14:29:18.890Z,3.07
2019-01-28T14:31:46.500Z,3.13
2019-01-28T14:34:14.055Z,3.20
2019-01-28T14:36:41.550Z,3.37
2019-01-28T14:39:13.746Z,6.33
2019-01-28T14:41:40.244Z,5.80
2019-01-28T14:44:07.648Z,6.83
2019-01-28T14:46:35.299Z,10.33
2019-01-28T14:49:02.746Z,10.30
2019-01-28T14:51:30.180Z,9.40
2019-01-28T14:53:57.808Z,12.37
2019-01-28T14:56:25.251Z,9.63
2019-01-28T14:58:52.706Z,9.27
2019-01-28T15:01:20.266Z,6.87
2019-01-28T15:03:47.640Z,11.63
2019-01-28T15:06:15.157Z,11.07
2019-01-28T15:08:42.692Z,9.27
2019-01-28T15:11:10.187Z,7.77
2019-01-28T15:13:39.889Z,9.57
2019-01-28T15:16:09.186Z,8.23
2019-01-28T15:18:36.996Z,9.83
2019-01-28T15:21:04.576Z,8.60
2019-01-28T15:23:32.073Z,7.00
2019-01-28T15:25:59.472Z,7.83
2019-01-28T15:28:27.018Z,6.13
2019-01-28T15:30:54.754Z,6.00
2019-01-28T15:33:22.413Z,6.03
2019-01-28T15:35:49.944Z,5.43
2019-01-28T15:38:17.532Z,4.97
2019-01-28T15:40:44.999Z,3.97
2019-01-28T15:43:12.822Z,3.30
2019-01-28T15:45:42.259Z,3.37
2019-01-28T15:48:09.695Z,5.30
2019-01-28T15:50:37.465Z,3.23
2019-01-28T15:53:07.056Z,2.40
2019-01-28T15:55:36.798Z,5.50
2019-01-28T15:58:05.253Z,9.60
2019-01-28T16:00:33.795Z,11.50
2019-01-28T16:03:01.923Z,9.23
2019-01-28T16:05:29.757Z,8.60
2019-01-28T16:07:57.316Z,8.20
2019-01-28T16:10:24.911Z,7.20
2019-01-28T16:12:52.583Z,5.40
2019-01-28T16:15:23.183Z,5.37
2019-01-28T16:17:51.137Z,3.23
2019-01-28T16:20:18.913Z,3.20
2019-01-28T16:22:46.980Z,2.70
2019-01-28T16:25:14.881Z,3.00
2019-01-28T16:27:42.521Z,2.90
2019-01-28T16:30:16.608Z,3.60
2019-01-28T16:32:44.581Z,2.30
2019-01-28T16:35:13.113Z,3.73
2019-01-28T16:37:41.222Z,10.03
2019-01-28T16:40:11.249Z,24.67
2019-01-28T16:42:38.839Z,6.17
2019-01-28T16:45:08.284Z,4.80
2019-01-28T16:47:36.283Z,3.47
2019-01-28T16:50:05.688Z,2.10
2019-01-28T16:52:34.222Z,7.53
2019-01-28T16:55:02.110Z,5.53
2019-01-28T16:57:30.320Z,5.30
2019-01-28T16:59:58.046Z,2.17
2019-01-28T17:02:25.968Z,2.80
2019-01-28T17:04:53.832Z,2.27
2019-01-28T17:07:21.612Z,2.93
2019-01-28T17:09:49.521Z,2.67
2019-01-28T17:12:17.438Z,3.50
2019-01-28T17:14:45.522Z,5.10
2019-01-28T17:17:13.263Z,5.07
2019-01-28T17:19:41.259Z,5.47
2019-01-28T17:22:08.987Z,6.23
2019-01-28T17:24:36.729Z,4.27
2019-01-28T17:27:04.888Z,3.57
2019-01-28T17:29:32.697Z,2.97
2019-01-28T17:32:00.334Z,2.60
2019-01-28T17:34:28.158Z,4.07
2019-01-28T17:36:57.598Z,3.23
2019-01-28T17:39:25.411Z,5.90
2019-01-28T17:41:53.193Z,7.10
2019-01-28T17:44:20.913Z,9.53
2019-01-28T17:46:48.737Z,8.83
2019-01-28T17:49:17.276Z,7.60
2019-01-28T17:51:45.046Z,5.17
2019-01-28T17:54:13.067Z,3.97
2019-01-28T17:56:41.630Z,3.53
2019-01-28T17:59:09.561Z,3.97
2019-01-28T18:01:37.520Z,3.50
2019-01-28T18:04:05.514Z,4.20
2019-01-28T18:06:33.739Z,4.80
2019-01-28T18:09:01.703Z,8.17
2019-01-28T18:11:29.677Z,7.17
2019-01-28T18:13:57.756Z,8.40
2019-01-28T18:16:25.893Z,10.23
2019-01-28T18:18:53.999Z,13.57
2019-01-28T18:21:23.421Z,9.40
2019-01-28T18:23:53.082Z,9.50
2019-01-28T18:26:21.320Z,8.40
2019-01-28T18:28:49.258Z,7.30
2019-01-28T18:31:17.323Z,7.93
2019-01-28T18:33:45.080Z,6.17
2019-01-28T18:36:13.499Z,6.03
2019-01-28T18:38:41.383Z,3.90
2019-01-28T18:41:10.301Z,2.83
2019-01-28T18:43:38.327Z,7.50
2019-01-28T18:46:06.563Z,6.60
2019-01-28T18:48:34.961Z,6.70
2019-01-28T18:51:03.088Z,7.47
2019-01-28T18:53:31.252Z,6.83
2019-01-28T18:55:59.245Z,9.60
2019-01-28T18:58:29.521Z,10.97
2019-01-28T19:00:57.493Z,10.40
2019-01-28T19:03:25.495Z,9.67
2019-01-28T19:06:31.180Z,8.53
2019-01-28T19:09:09.813Z,7.73
2019-01-28T19:11:56.429Z,7.33
2019-01-28T19:14:42.454Z,4.20
2019-01-28T19:17:25.881Z,4.37
2019-01-28T19:20:03.341Z,3.00
2019-01-28T19:22:31.390Z,3.30
2019-01-28T19:24:59.571Z,3.30
2019-01-28T19:27:27.675Z,3.03
2019-01-28T19:29:55.828Z,3.23
2019-01-28T19:32:23.866Z,3.47
2019-01-28T19:34:52.128Z,4.30
2019-01-28T19:37:20.249Z,4.37
2019-01-28T19:39:48.337Z,3.43
2019-01-28T19:42:17.631Z,2.10
2019-01-28T19:44:45.563Z,2.73
2019-01-28T19:47:13.636Z,2.93
2019-01-28T19:49:41.644Z,2.83
2019-01-28T19:52:09.671Z,4.50
2019-01-28T19:54:37.608Z,3.80
2019-01-28T19:57:05.569Z,6.93
2019-01-28T19:59:33.591Z,2.93
2019-01-28T20:02:01.647Z,3.10
2019-01-28T20:04:29.618Z,3.27
2019-01-28T20:06:58.656Z,2.90
2019-01-28T20:09:47.526Z,2.27
2019-01-28T20:12:15.542Z,2.33
2019-01-28T20:14:43.496Z,2.23
2019-01-28T20:17:11.418Z,1.70
2019-01-28T20:19:39.924Z,2.77
2019-01-28T20:22:07.938Z,2.30
2019-01-28T20:24:37.251Z,2.47
2019-01-28T20:27:05.233Z,2.00
2019-01-28T20:29:33.499Z,1.60
2019-01-28T20:32:22.179Z,2.30
2019-01-28T20:34:50.484Z,2.57
2019-01-28T20:37:19.827Z,2.17
2019-01-28T20:39:48.011Z,1.77
2019-01-28T20:42:16.132Z,2.00
2019-01-28T20:44:46.478Z,2.03
2019-01-28T20:47:14.493Z,1.60
2019-01-28T20:49:42.523Z,1.47
2019-01-28T20:52:14.616Z,1.57
2019-01-28T20:54:42.924Z,1.00
2019-01-28T20:57:10.969Z,2.03
2019-01-28T20:59:38.993Z,1.47
2019-01-28T21:02:07.075Z,1.40
2019-01-28T21:04:35.008Z,1.20
2019-01-28T21:07:02.892Z,0.87
2019-01-28T21:09:31.406Z,1.90
2019-01-28T21:11:59.234Z,1.30
2019-01-28T21:14:26.933Z,1.80
2019-01-28T21:16:55.413Z,1.90
2019-01-28T21:19:23.053Z,1.10
2019-01-28T21:21:51.198Z,1.23
2019-01-28T21:24:18.926Z,1.23
2019-01-28T21:26:46.720Z,3.03
2019-01-28T21:29:14.684Z,1.13
2019-01-28T21:31:42.618Z,1.70
2019-01-28T21:34:10.367Z,1.63
2019-01-28T21:37:08.533Z,1.33
2019-01-28T21:39:36.518Z,4.03
2019-01-28T21:42:04.517Z,1.40
2019-01-28T21:44:32.114Z,1.43
2019-01-28T21:46:59.583Z,1.10
2019-01-28T21:49:27.018Z,1.97
2019-01-28T21:51:54.550Z,1.30
2019-01-28T21:54:21.978Z,2.20
2019-01-28T21:56:49.492Z,2.50
2019-01-28T21:59:16.987Z,1.67
2019-01-28T22:01:44.483Z,2.07
2019-01-28T22:04:11.983Z,1.33
2019-01-28T22:06:39.463Z,1.50
2019-01-28T22:09:08.631Z,1.93
2019-01-28T22:11:36.035Z,1.50
2019-01-28T22:14:05.218Z,1.60
2019-01-28T22:16:32.615Z,2.90
2019-01-28T22:19:00.046Z,3.07
2019-01-28T22:21:27.595Z,3.80
2019-01-28T22:23:55.078Z,2.60
2019-01-28T22:26:22.537Z,2.90
2019-01-28T22:28:49.966Z,2.53
2019-01-28T22:31:17.406Z,3.03
2019-01-28T22:33:44.844Z,2.93
2019-01-28T22:36:12.251Z,3.17
2019-01-28T22:38:39.677Z,3.13
2019-01-28T22:41:07.112Z,2.73
2019-01-28T22:43:34.520Z,4.53
2019-01-28T22:46:01.998Z,5.03
2019-01-28T22:48:29.406Z,4.73
2019-01-28T22:50:56.806Z,5.40
2019-01-28T22:53:24.240Z,6.57
2019-01-28T22:55:51.639Z,5.17
2019-01-28T22:58:19.012Z,5.60
2019-01-28T23:01:00.429Z,5.83
2019-01-28T23:03:28.632Z,5.00
2019-01-28T23:05:56.698Z,4.50
2019-01-28T23:08:24.114Z,4.77
2019-01-28T23:10:51.560Z,4.37
2019-01-28T23:13:18.966Z,5.40
2019-01-28T23:15:46.365Z,4.17
2019-01-28T23:18:13.775Z,5.73
2019-01-28T23:20:41.185Z,4.47
2019-01-28T23:23:08.616Z,4.80
2019-01-28T23:25:36.142Z,4.30
2019-01-28T23:28:04.061Z,3.80
2019-01-28T23:30:31.646Z,4.20
2019-01-28T23:32:59.122Z,3.97
2019-01-28T23:35:26.616Z,3.20
2019-01-28T23:37:54.174Z,3.73
2019-01-28T23:40:21.619Z,3.40
2019-01-28T23:42:48.995Z,3.60
2019-01-28T23:45:16.388Z,3.60
2019-01-28T23:47:43.858Z,4.13
2019-01-28T23:50:11.421Z,4.37
2019-01-28T23:52:38.869Z,4.43
2019-01-28T23:55:07.001Z,4.40
2019-01-28T23:57:34.398Z,4.67
